createdAt,value
2019-05-22T00:02:44.945Z,101462.02
2019-05-22T00:05:18.189Z,101459.34
2019-05-22T00:07:49.021Z,101460.99
2019-05-22T00:10:24.709Z,101452.97
2019-05-22T00:12:55.225Z,101453.50
2019-05-22T00:15:25.133Z,101452.38
2019-05-22T00:17:58.545Z,101451.56
2019-05-22T00:20:29.767Z,101449.17
2019-05-22T00:23:01.961Z,101451.84
2019-05-22T00:25:33.515Z,101455.29
2019-05-22T00:28:04.914Z,101449.94
2019-05-22T00:30:36.486Z,101453.46
2019-05-22T00:33:07.981Z,101457.76
2019-05-22T00:35:38.656Z,101458.84
2019-05-22T00:38:10.122Z,101458.84
2019-05-22T00:40:45.590Z,101463.14
2019-05-22T00:43:21.538Z,101462.89
2019-05-22T00:45:52.462Z,101461.77
2019-05-22T00:48:24.075Z,101463.91
2019-05-22T00:51:03.591Z,101473.02
2019-05-22T00:53:36.946Z,101477.03
2019-05-22T00:56:25.245Z,101478.12
2019-05-22T00:58:58.287Z,101478.40
2019-05-22T01:01:46.883Z,101473.87
2019-05-22T01:04:22.998Z,101478.40
2019-05-22T01:06:55.133Z,101484.27
2019-05-22T01:09:26.557Z,101485.85
2019-05-22T01:11:56.538Z,101485.89
2019-05-22T01:14:42.640Z,101490.18
2019-05-22T01:17:03.930Z,101485.39
2019-05-22T01:19:35.399Z,101485.64
2019-05-22T01:22:06.685Z,101487.23
2019-05-22T01:24:38.805Z,101488.84
2019-05-22T01:27:09.786Z,101492.29
2019-05-22T01:29:40.465Z,101492.04
2019-05-22T01:32:18.434Z,101493.12
2019-05-22T01:34:48.873Z,101500.12
2019-05-22T01:37:19.628Z,101502.23
2019-05-22T01:40:17.482Z,101498.51
2019-05-22T01:42:51.956Z,101496.08
2019-05-22T01:45:25.070Z,101503.05
2019-05-22T01:48:03.520Z,101500.09
2019-05-22T01:50:52.620Z,101508.41
2019-05-22T01:53:24.426Z,101505.72
2019-05-22T01:55:58.636Z,101500.69
2019-05-22T01:58:31.418Z,101504.63
2019-05-22T02:01:03.338Z,101509.50
2019-05-22T02:03:34.434Z,101508.95
2019-05-22T02:06:06.268Z,101503.63
2019-05-22T02:08:44.221Z,101509.23
2019-05-22T02:11:18.366Z,101507.05
2019-05-22T02:13:59.143Z,101514.09
2019-05-22T02:16:32.194Z,101513.11
2019-05-22T02:19:03.392Z,101516.33
2019-05-22T02:21:35.033Z,101516.33
2019-05-22T02:24:06.551Z,101515.78
2019-05-22T02:26:37.237Z,101514.72
2019-05-22T02:29:08.641Z,101512.86
2019-05-22T02:31:40.362Z,101521.91
2019-05-22T02:34:10.739Z,101520.02
2019-05-22T02:36:42.591Z,101522.20
2019-05-22T02:39:18.582Z,101521.68
2019-05-22T02:41:57.137Z,101521.93
2019-05-22T02:44:28.976Z,101520.34
2019-05-22T02:47:17.909Z,101520.58
2019-05-22T02:49:35.559Z,101532.89
2019-05-22T02:52:07.776Z,101526.74
2019-05-22T02:54:38.808Z,101532.61
2019-05-22T02:57:10.772Z,101542.73
2019-05-22T02:59:42.479Z,101545.70
2019-05-22T03:02:14.416Z,101550.52
2019-05-22T03:05:00.705Z,101553.44
2019-05-22T03:07:31.875Z,101547.32
2019-05-22T03:10:12.967Z,101554.77
2019-05-22T03:12:44.266Z,101555.08
2019-05-22T03:15:18.179Z,101554.25
2019-05-22T03:17:49.750Z,101560.92
2019-05-22T03:20:23.579Z,101562.27
2019-05-22T03:23:06.873Z,101555.33
2019-05-22T03:25:38.565Z,101559.88
2019-05-22T03:28:08.692Z,101557.17
2019-05-22T03:30:42.541Z,101560.41
2019-05-22T03:33:13.640Z,101567.36
2019-05-22T03:35:48.758Z,101566.28
2019-05-22T03:38:20.603Z,101568.70
2019-05-22T03:40:53.625Z,101567.36
2019-05-22T03:43:28.424Z,101567.06
2019-05-22T03:46:01.602Z,101576.95
2019-05-22T03:48:37.888Z,101578.53
2019-05-22T03:51:14.444Z,101581.45
2019-05-22T03:53:46.549Z,101579.09
2019-05-22T03:56:20.270Z,101577.22
2019-05-22T03:58:50.445Z,101574.27
2019-05-22T04:01:22.394Z,101580.14
2019-05-22T04:03:52.798Z,101578.00
2019-05-22T04:06:26.011Z,101574.30
2019-05-22T04:08:57.573Z,101579.34
2019-05-22T04:11:34.323Z,101580.16
2019-05-22T04:14:05.339Z,101577.23
2019-05-22T04:16:35.759Z,101586.55
2019-05-22T04:19:06.708Z,101580.42
2019-05-22T04:21:36.560Z,101587.03
2019-05-22T04:24:06.521Z,101598.77
2019-05-22T04:26:37.087Z,101592.92
2019-05-22T04:29:07.969Z,101603.63
2019-05-22T04:31:54.100Z,101600.46
2019-05-22T04:34:24.645Z,101598.01
2019-05-22T04:36:55.760Z,101606.02
2019-05-22T04:39:27.616Z,101607.91
2019-05-22T04:41:59.155Z,101604.45
2019-05-22T04:44:29.383Z,101608.98
2019-05-22T04:47:00.700Z,101610.58
2019-05-22T04:49:31.271Z,101615.08
2019-05-22T04:52:02.333Z,101614.58
2019-05-22T04:54:31.992Z,101609.47
2019-05-22T04:57:02.906Z,101615.36
2019-05-22T04:59:33.524Z,101617.00
2019-05-22T05:02:05.264Z,101618.59
2019-05-22T05:04:35.608Z,101619.92
2019-05-22T05:07:07.206Z,101625.50
2019-05-22T05:09:37.455Z,101625.78
2019-05-22T05:12:08.901Z,101626.29
2019-05-22T05:14:39.850Z,101626.55
2019-05-22T05:17:11.378Z,101626.00
2019-05-22T05:19:41.619Z,101639.08
2019-05-22T05:22:14.886Z,101635.63
2019-05-22T05:24:44.890Z,101636.16
2019-05-22T05:27:14.858Z,101633.78
2019-05-22T05:29:44.936Z,101639.63
2019-05-22T05:32:15.311Z,101642.59
2019-05-22T05:34:52.803Z,101632.45
2019-05-22T05:37:24.211Z,101633.23
2019-05-22T05:40:09.390Z,101633.57
2019-05-22T05:42:39.975Z,101639.71
2019-05-22T05:45:13.521Z,101647.95
2019-05-22T05:47:44.216Z,101642.58
2019-05-22T05:50:15.189Z,101646.05
2019-05-22T05:52:45.322Z,101641.50
2019-05-22T05:55:16.050Z,101639.41
2019-05-22T05:58:13.666Z,101647.33
2019-05-22T06:00:56.846Z,101650.84
2019-05-22T06:03:40.718Z,101652.99
2019-05-22T06:06:28.712Z,101657.78
2019-05-22T06:09:02.386Z,101663.92
2019-05-22T06:11:46.666Z,101664.47
2019-05-22T06:14:37.183Z,101669.80
2019-05-22T06:17:44.585Z,101666.63
2019-05-22T06:20:19.505Z,101671.10
2019-05-22T06:23:16.869Z,101676.70
2019-05-22T06:25:46.728Z,101670.59
2019-05-22T06:28:17.796Z,101677.53
2019-05-22T06:30:49.052Z,101676.98
2019-05-22T06:33:38.887Z,101682.33
2019-05-22T06:36:13.055Z,101688.45
2019-05-22T06:38:59.396Z,101686.34
2019-05-22T06:41:33.046Z,101684.98
2019-05-22T06:44:35.607Z,101688.16
2019-05-22T06:47:08.459Z,101684.16
2019-05-22T06:49:41.513Z,101695.88
2019-05-22T06:52:11.999Z,101692.39
2019-05-22T06:54:42.122Z,101687.28
2019-05-22T06:57:14.879Z,101687.02
2019-05-22T06:59:46.577Z,101685.97
2019-05-22T07:02:17.957Z,101696.08
2019-05-22T07:04:48.681Z,101701.13
2019-05-22T07:07:20.564Z,101697.92
2019-05-22T07:09:50.737Z,101701.33
2019-05-22T07:12:20.899Z,101701.79
2019-05-22T07:15:11.925Z,101703.44
2019-05-22T07:17:42.132Z,101701.94
2019-05-22T07:20:13.088Z,101700.34
2019-05-22T07:22:44.208Z,101703.36
2019-05-22T07:25:15.383Z,101702.30
2019-05-22T07:27:45.810Z,101702.80
2019-05-22T07:30:17.192Z,101711.89
2019-05-22T07:32:47.264Z,101709.65
2019-05-22T07:35:17.505Z,101706.95
2019-05-22T07:37:49.727Z,101709.06
2019-05-22T07:40:20.120Z,101708.70
2019-05-22T07:42:52.929Z,101715.78
2019-05-22T07:45:27.364Z,101712.98
2019-05-22T07:47:58.485Z,101716.16
2019-05-22T07:50:29.381Z,101715.28
2019-05-22T07:52:59.590Z,101716.55
2019-05-22T07:55:33.018Z,101721.80
2019-05-22T07:58:15.364Z,101722.27
2019-05-22T08:00:51.162Z,101719.99
2019-05-22T08:03:23.625Z,101726.62
2019-05-22T08:05:56.309Z,101726.72
2019-05-22T08:08:27.959Z,101722.83
2019-05-22T08:10:59.687Z,101726.46
2019-05-22T08:13:31.202Z,101716.14
2019-05-22T08:16:01.714Z,101713.57
2019-05-22T08:18:34.184Z,101721.77
2019-05-22T08:21:04.526Z,101712.54
2019-05-22T08:23:34.730Z,101711.52
2019-05-22T08:26:06.757Z,101708.02
2019-05-22T08:28:37.935Z,101713.58
2019-05-22T08:31:11.026Z,101711.92
2019-05-22T08:33:41.025Z,101709.78
2019-05-22T08:36:11.489Z,101715.16
2019-05-22T08:38:43.893Z,101713.55
2019-05-22T08:41:18.126Z,101714.72
2019-05-22T08:44:13.537Z,101719.41
2019-05-22T08:46:20.923Z,101722.55
2019-05-22T08:48:51.924Z,101724.89
2019-05-22T08:51:22.721Z,101729.78
2019-05-22T08:53:54.365Z,101724.89
2019-05-22T08:56:25.554Z,101728.78
2019-05-22T08:58:56.535Z,101726.51
2019-05-22T09:01:27.415Z,101729.07
2019-05-22T09:03:57.761Z,101719.98
2019-05-22T09:06:27.524Z,101723.87
2019-05-22T09:08:57.386Z,101721.67
2019-05-22T09:11:27.148Z,101719.77
2019-05-22T09:13:57.069Z,101725.89
2019-05-22T09:16:27.330Z,101728.89
2019-05-22T09:18:57.593Z,101734.81
2019-05-22T09:21:28.246Z,101726.48
2019-05-22T09:23:59.684Z,101732.03
2019-05-22T09:26:30.471Z,101728.36
2019-05-22T09:29:00.287Z,101727.64
2019-05-22T09:31:30.098Z,101728.61
2019-05-22T09:34:00.393Z,101730.86
2019-05-22T09:36:30.233Z,101719.93
2019-05-22T09:39:00.255Z,101725.37
2019-05-22T09:41:30.276Z,101722.72
2019-05-22T09:44:00.203Z,101722.08
2019-05-22T09:46:30.447Z,101721.94
2019-05-22T09:49:00.891Z,101714.41
2019-05-22T09:51:31.815Z,101724.73
2019-05-22T09:54:02.259Z,101729.64
2019-05-22T09:56:32.325Z,101725.06
2019-05-22T09:59:02.459Z,101728.27
2019-05-22T10:01:32.275Z,101723.07
2019-05-22T10:04:02.718Z,101724.33
2019-05-22T10:06:32.730Z,101728.29
2019-05-22T10:09:02.760Z,101734.75
2019-05-22T10:11:33.134Z,101734.98
2019-05-22T10:14:04.265Z,101732.50
2019-05-22T10:16:34.099Z,101730.31
2019-05-22T10:19:04.194Z,101729.44
2019-05-22T10:21:34.377Z,101731.38
2019-05-22T10:24:04.656Z,101728.02
2019-05-22T10:26:34.762Z,101727.60
2019-05-22T10:29:05.314Z,101731.88
2019-05-22T10:31:35.459Z,101735.34
2019-05-22T10:34:05.790Z,101737.11
2019-05-22T10:36:35.877Z,101739.68
2019-05-22T10:39:08.391Z,101728.75
2019-05-22T10:41:38.492Z,101735.33
2019-05-22T10:44:08.345Z,101729.75
2019-05-22T10:46:38.780Z,101722.47
2019-05-22T10:49:08.631Z,101720.41
2019-05-22T10:51:38.566Z,101726.95
2019-05-22T10:54:08.782Z,101724.87
2019-05-22T10:56:38.526Z,101717.51
2019-05-22T10:59:08.764Z,101718.58
2019-05-22T11:01:38.776Z,101713.81
2019-05-22T11:04:08.611Z,101710.14
2019-05-22T11:06:39.097Z,101715.30
2019-05-22T11:09:10.103Z,101716.81
2019-05-22T11:11:41.165Z,101713.05
2019-05-22T11:14:11.577Z,101720.70
2019-05-22T11:16:44.122Z,101716.52
2019-05-22T11:19:14.501Z,101714.08
2019-05-22T11:21:44.540Z,101718.78
2019-05-22T11:24:14.516Z,101713.16
2019-05-22T11:26:45.975Z,101716.02
2019-05-22T11:29:16.893Z,101712.67
2019-05-22T11:31:46.672Z,101719.03
2019-05-22T11:34:16.652Z,101719.18
2019-05-22T11:36:46.454Z,101718.63
2019-05-22T11:39:18.816Z,101715.72
2019-05-22T11:41:49.790Z,101710.65
2019-05-22T11:44:20.855Z,101710.97
2019-05-22T11:46:51.089Z,101707.27
2019-05-22T11:49:20.946Z,101710.11
2019-05-22T11:51:50.801Z,101705.89
2019-05-22T11:54:20.932Z,101704.11
2019-05-22T11:56:51.398Z,101697.55
2019-05-22T11:59:23.314Z,101700.89
2019-05-22T12:01:53.478Z,101701.66
2019-05-22T12:04:24.295Z,101701.45
2019-05-22T12:06:54.279Z,101693.83
2019-05-22T12:09:24.791Z,101689.92
2019-05-22T12:11:54.845Z,101688.28
2019-05-22T12:14:25.010Z,101687.40
2019-05-22T12:16:56.170Z,101695.06
2019-05-22T12:19:27.878Z,101694.05
2019-05-22T12:21:57.598Z,101689.03
2019-05-22T12:24:35.520Z,101688.61
2019-05-22T12:26:59.110Z,101684.80
2019-05-22T12:29:29.444Z,101687.62
2019-05-22T12:31:59.406Z,101685.94
2019-05-22T12:34:29.221Z,101691.39
2019-05-22T12:36:59.392Z,101697.92
2019-05-22T12:39:29.797Z,101688.23
2019-05-22T12:42:01.632Z,101689.27
2019-05-22T12:44:31.761Z,101683.92
2019-05-22T12:47:03.547Z,101681.98
2019-05-22T12:49:33.940Z,101685.27
2019-05-22T12:52:05.486Z,101684.61
2019-05-22T12:54:46.263Z,101690.64
2019-05-22T12:57:08.644Z,101683.30
2019-05-22T12:59:38.668Z,101675.88
2019-05-22T13:02:10.971Z,101673.44
2019-05-22T13:04:42.864Z,101676.12
2019-05-22T13:07:13.783Z,101674.16
2019-05-22T13:09:45.142Z,101671.02
2019-05-22T13:12:16.162Z,101670.83
2019-05-22T13:14:46.472Z,101667.61
2019-05-22T13:17:17.997Z,101671.62
2019-05-22T13:19:50.177Z,101669.33
2019-05-22T13:22:24.547Z,101665.78
2019-05-22T13:24:55.406Z,101665.69
2019-05-22T13:27:26.514Z,101663.80
2019-05-22T13:29:59.251Z,101663.95
2019-05-22T13:32:30.573Z,101666.77
2019-05-22T13:35:01.757Z,101660.82
2019-05-22T13:37:31.592Z,101658.28
2019-05-22T13:40:01.700Z,101660.44
2019-05-22T13:42:32.461Z,101657.67
2019-05-22T13:45:03.006Z,101656.74
2019-05-22T13:47:32.871Z,101649.53
2019-05-22T13:50:03.521Z,101654.50
2019-05-22T13:52:34.691Z,101646.11
2019-05-22T13:55:08.062Z,101644.08
2019-05-22T13:57:38.525Z,101647.41
2019-05-22T14:00:09.835Z,101651.39
2019-05-22T14:02:40.035Z,101653.45
2019-05-22T14:05:13.736Z,101651.31
2019-05-22T14:07:42.636Z,101650.87
2019-05-22T14:10:13.003Z,101651.59
2019-05-22T14:12:43.799Z,101654.73
2019-05-22T14:15:16.386Z,101649.81
2019-05-22T14:17:46.323Z,101638.92
2019-05-22T14:20:17.394Z,101640.81
2019-05-22T14:22:47.287Z,101633.93
2019-05-22T14:25:19.705Z,101635.77
2019-05-22T14:27:50.115Z,101618.60
2019-05-22T14:30:24.859Z,101627.36
2019-05-22T14:32:55.165Z,101624.44
2019-05-22T14:35:27.234Z,101625.58
2019-05-22T14:37:57.807Z,101632.09
2019-05-22T14:40:29.066Z,101634.58
2019-05-22T14:42:59.033Z,101623.77
2019-05-22T14:45:29.466Z,101619.73
2019-05-22T14:47:59.514Z,101621.79
2019-05-22T14:50:32.808Z,101626.87
2019-05-22T14:53:02.449Z,101626.14
2019-05-22T14:55:34.842Z,101632.69
2019-05-22T15:00:54.921Z,101635.56
2019-05-22T15:03:25.389Z,101631.30
2019-05-22T15:05:56.515Z,101628.23
2019-05-22T15:08:26.509Z,101633.63
2019-05-22T15:10:58.539Z,101631.41
2019-05-22T15:13:28.737Z,101628.05
2019-05-22T15:15:59.282Z,101624.37
2019-05-22T15:18:30.257Z,101623.17
2019-05-22T15:21:01.631Z,101613.67
2019-05-22T15:23:33.672Z,101615.82
2019-05-22T15:26:04.043Z,101613.73
2019-05-22T15:28:34.346Z,101614.94
2019-05-22T15:31:05.198Z,101609.80
2019-05-22T15:33:35.312Z,101610.92
2019-05-22T15:36:08.302Z,101610.34
2019-05-22T15:38:41.280Z,101610.92
2019-05-22T15:41:12.813Z,101599.16
2019-05-22T15:43:49.994Z,101604.23
2019-05-22T15:46:19.045Z,101604.86
2019-05-22T15:48:50.841Z,101607.16
2019-05-22T15:51:26.181Z,101603.66
2019-05-22T15:54:00.700Z,101602.00
2019-05-22T15:56:34.539Z,101597.47
2019-05-22T15:59:09.462Z,101601.12
2019-05-22T16:01:39.778Z,101595.34
2019-05-22T16:04:18.470Z,101595.52
2019-05-22T16:06:50.204Z,101601.95
2019-05-22T16:09:21.063Z,101604.30
2019-05-22T16:11:54.705Z,101603.50
2019-05-22T16:14:26.840Z,101598.23
2019-05-22T16:16:58.905Z,101609.56
2019-05-22T16:19:31.210Z,101602.77
2019-05-22T16:22:05.370Z,101601.24
2019-05-22T16:24:38.117Z,101605.22
2019-05-22T16:27:10.211Z,101602.73
2019-05-22T16:29:41.430Z,101600.80
2019-05-22T16:32:14.097Z,101599.73
2019-05-22T16:34:44.560Z,101599.63
2019-05-22T16:37:15.695Z,101595.77
2019-05-22T16:39:47.007Z,101597.95
2019-05-22T16:42:18.008Z,101587.07
2019-05-22T16:44:47.963Z,101588.28
2019-05-22T16:47:20.193Z,101595.75
2019-05-22T16:49:51.968Z,101587.49
2019-05-22T16:52:24.019Z,101589.22
2019-05-22T16:54:54.453Z,101591.26
2019-05-22T16:57:26.585Z,101589.40
2019-05-22T16:59:56.792Z,101590.82
2019-05-22T17:02:28.289Z,101589.18
2019-05-22T17:05:01.838Z,101583.77
2019-05-22T17:07:30.232Z,101584.09
2019-05-22T17:10:02.911Z,101592.66
2019-05-22T17:12:33.535Z,101581.43
2019-05-22T17:15:04.478Z,101585.66
2019-05-22T17:17:34.651Z,101586.77
2019-05-22T17:20:08.320Z,101587.56
2019-05-22T17:22:38.974Z,101582.95
2019-05-22T17:25:10.154Z,101588.96
2019-05-22T17:27:40.783Z,101587.75
2019-05-22T17:30:19.955Z,101588.73
2019-05-22T17:32:47.181Z,101591.44
2019-05-22T17:35:19.642Z,101593.97
2019-05-22T17:37:49.988Z,101589.20
2019-05-22T17:40:21.436Z,101586.23
2019-05-22T17:42:54.521Z,101587.59
2019-05-22T17:45:28.436Z,101594.80
2019-05-22T17:47:58.816Z,101589.73
2019-05-22T17:50:29.736Z,101589.03
2019-05-22T17:53:01.169Z,101590.30
2019-05-22T17:55:32.222Z,101587.17
2019-05-22T17:58:04.265Z,101588.83
2019-05-22T18:00:41.850Z,101584.80
2019-05-22T18:03:12.108Z,101585.82
2019-05-22T18:05:41.937Z,101585.29
2019-05-22T18:08:12.466Z,101587.33
2019-05-22T18:10:46.224Z,101591.14
2019-05-22T18:13:16.549Z,101584.27
2019-05-22T18:15:47.816Z,101587.52
2019-05-22T18:18:18.560Z,101585.78
2019-05-22T18:20:50.058Z,101586.96
2019-05-22T18:23:20.484Z,101581.41
2019-05-22T18:25:50.348Z,101584.12
2019-05-22T18:28:21.039Z,101587.34
2019-05-22T18:30:51.138Z,101589.87
2019-05-22T18:33:20.955Z,101590.61
2019-05-22T18:35:50.785Z,101590.33
2019-05-22T18:38:20.628Z,101588.56
2019-05-22T18:40:50.617Z,101584.19
2019-05-22T18:43:23.045Z,101584.41
2019-05-22T18:45:52.717Z,101586.56
2019-05-22T18:48:22.543Z,101592.50
2019-05-22T18:50:53.921Z,101593.30
2019-05-22T18:53:23.782Z,101590.59
2019-05-22T18:55:53.688Z,101591.83
2019-05-22T18:58:23.770Z,101591.98
2019-05-22T19:00:53.651Z,101599.67
2019-05-22T19:03:24.007Z,101598.23
2019-05-22T19:05:54.095Z,101603.67
2019-05-22T19:08:24.073Z,101600.25
2019-05-22T19:10:54.212Z,101600.17
2019-05-22T19:13:24.847Z,101596.06
2019-05-22T19:15:55.018Z,101602.09
2019-05-22T19:18:24.818Z,101611.98
2019-05-22T19:20:55.035Z,101612.25
2019-05-22T19:23:25.232Z,101615.89
2019-05-22T19:25:55.291Z,101614.50
2019-05-22T19:28:40.543Z,101626.63
2019-05-22T19:30:57.208Z,101627.43
2019-05-22T19:33:27.330Z,101628.13
2019-05-22T19:35:57.442Z,101628.67
2019-05-22T19:38:27.891Z,101630.09
2019-05-22T19:40:58.167Z,101631.19
2019-05-22T19:43:28.276Z,101633.98
2019-05-22T19:45:58.460Z,101633.50
2019-05-22T19:48:30.472Z,101630.83
2019-05-22T19:51:03.260Z,101634.89
2019-05-22T19:53:40.003Z,101634.56
2019-05-22T19:56:08.094Z,101641.83
2019-05-22T19:58:38.963Z,101643.02
2019-05-22T20:01:09.038Z,101643.29
2019-05-22T20:03:39.228Z,101646.32
2019-05-22T20:06:09.255Z,101653.47
2019-05-22T20:08:39.151Z,101651.89
2019-05-22T20:11:09.289Z,101651.73
2019-05-22T20:13:40.292Z,101645.11
2019-05-22T20:16:11.198Z,101652.98
2019-05-22T20:18:41.091Z,101653.66
2019-05-22T20:21:11.188Z,101650.67
2019-05-22T20:23:41.798Z,101655.59
2019-05-22T20:26:11.965Z,101658.27
2019-05-22T20:28:41.931Z,101660.41
2019-05-22T20:31:11.861Z,101657.59
2019-05-22T20:33:42.534Z,101656.16
2019-05-22T20:36:12.592Z,101659.14
2019-05-22T20:38:42.308Z,101662.78
2019-05-22T20:41:13.194Z,101661.23
2019-05-22T20:43:44.147Z,101670.77
2019-05-22T20:46:17.567Z,101666.58
2019-05-22T20:48:49.596Z,101665.42
2019-05-22T20:51:20.908Z,101667.31
2019-05-22T20:53:54.705Z,101665.07
2019-05-22T20:56:24.843Z,101663.91
2019-05-22T20:58:55.262Z,101665.18
2019-05-22T21:01:25.085Z,101658.23
2019-05-22T21:03:55.827Z,101668.46
2019-05-22T21:06:29.145Z,101668.16
2019-05-22T21:09:00.584Z,101673.54
2019-05-22T21:11:31.932Z,101675.45
2019-05-22T21:14:03.363Z,101677.87
2019-05-22T21:16:34.651Z,101677.56
2019-05-22T21:19:04.858Z,101684.47
2019-05-22T21:21:34.701Z,101679.62
2019-05-22T21:24:11.310Z,101688.05
2019-05-22T21:26:37.402Z,101686.44
2019-05-22T21:29:07.710Z,101686.59
2019-05-22T21:31:38.127Z,101679.91
2019-05-22T21:34:08.646Z,101687.30
2019-05-22T21:36:39.089Z,101689.06
2019-05-22T21:39:13.177Z,101687.72
2019-05-22T21:41:43.077Z,101688.63
2019-05-22T21:44:13.397Z,101687.37
2019-05-22T21:46:43.556Z,101682.06
2019-05-22T21:49:13.354Z,101685.28
2019-05-22T21:51:43.516Z,101689.39
2019-05-22T21:54:14.417Z,101688.74
2019-05-22T21:56:45.378Z,101688.28
2019-05-22T21:59:16.967Z,101689.92
2019-05-22T22:01:48.862Z,101691.11
2019-05-22T22:08:07.234Z,101694.84
2019-05-22T22:10:38.033Z,101694.32
2019-05-22T22:13:08.491Z,101695.17
2019-05-22T22:15:43.601Z,101696.66
2019-05-22T22:18:14.589Z,101700.83
2019-05-22T22:20:44.999Z,101701.55
2019-05-22T22:23:17.983Z,101696.59
2019-05-22T22:25:50.362Z,101695.15
2019-05-22T22:28:20.780Z,101701.49
2019-05-22T22:30:55.328Z,101706.55
2019-05-22T22:33:31.977Z,101705.92
2019-05-22T22:36:03.439Z,101707.66
2019-05-22T22:38:36.558Z,101710.53
2019-05-22T22:41:09.489Z,101703.15
2019-05-22T22:43:41.011Z,101706.72
2019-05-22T22:46:46.802Z,101714.72
2019-05-22T22:49:19.362Z,101713.30
2019-05-22T22:51:50.557Z,101717.27
2019-05-22T22:54:21.772Z,101708.94
2019-05-22T22:56:52.787Z,101707.59
2019-05-22T22:59:24.420Z,101708.77
2019-05-22T23:01:57.487Z,101708.61
2019-05-22T23:04:29.886Z,101714.04
2019-05-22T23:07:05.985Z,101710.02
2019-05-22T23:09:40.760Z,101710.88
2019-05-22T23:12:12.228Z,101713.06
2019-05-22T23:14:48.399Z,101715.49
2019-05-22T23:17:18.680Z,101710.44
2019-05-22T23:19:47.369Z,101710.25
2019-05-22T23:22:17.060Z,101706.75
2019-05-22T23:24:49.629Z,101709.48
2019-05-22T23:27:21.102Z,101705.85
2019-05-22T23:29:51.793Z,101707.27
2019-05-22T23:32:23.029Z,101702.75
2019-05-22T23:34:53.205Z,101701.70
2019-05-22T23:37:24.253Z,101705.43
2019-05-22T23:39:55.083Z,101707.31
2019-05-22T23:42:30.173Z,101703.05
2019-05-22T23:45:06.735Z,101701.42
2019-05-22T23:47:41.163Z,101708.16
2019-05-22T23:50:12.468Z,101699.56
2019-05-22T23:52:42.202Z,101699.56
2019-05-22T23:55:12.956Z,101703.30
2019-05-22T23:57:43.548Z,101703.86
